Time;durP1;ratioP1;P1;durP2;ratioP2;P2;SDS_P1;SDS_P2;PMS_P1;PMS_P2;Temp;Humidity;BMP_temperature;BMP_pressure;BME280_temperature;BME280_humidity;BME280_pressure;Samples;Min_cycle;Max_cycle;Signal;HPM_P1;HPM_P2
2023/07/22 00:03:54;;;;;;;1.70;1.60;;;20.20;28.60;;;;;;10462578;28;20785;-77
2023/07/22 00:08:57;;;;;;;1.73;1.63;;;20.10;29.10;;;;;;10527817;28;20315;-79
2023/07/22 00:14:01;;;;;;;2.63;1.80;;;20.10;28.80;;;;;;10544104;28;20640;-78
2023/07/22 00:19:07;;;;;;;4.03;2.00;;;20.00;28.90;;;;;;10545135;28;20231;-78
2023/07/22 00:24:10;;;;;;;2.77;1.80;;;20.00;29.40;;;;;;10544927;28;20826;-79
2023/07/22 00:29:14;;;;;;;1.57;1.47;;;20.00;29.10;;;;;;10544125;28;20291;-78
2023/07/22 00:34:19;;;;;;;3.13;2.00;;;19.90;29.10;;;;;;10494061;28;20321;-77
2023/07/22 00:39:22;;;;;;;3.57;1.80;;;19.90;29.50;;;;;;10502906;28;20232;-78
2023/07/22 00:44:25;;;;;;;2.37;2.07;;;19.80;29.20;;;;;;10501646;28;20239;-79
2023/07/22 00:49:31;;;;;;;1.50;1.40;;;19.70;29.20;;;;;;10501113;28;20228;-78
2023/07/22 00:54:35;;;;;;;1.80;1.70;;;19.70;29.70;;;;;;10500356;28;20248;-78
2023/07/22 00:59:38;;;;;;;2.07;1.90;;;19.60;29.40;;;;;;10500665;28;20263;-78
2023/07/22 01:04:43;;;;;;;2.57;2.13;;;19.60;29.40;;;;;;10500303;28;20307;-78
2023/07/22 01:09:47;;;;;;;1.83;1.73;;;19.50;29.80;;;;;;10501509;28;20220;-78
2023/07/22 01:14:50;;;;;;;2.07;1.90;;;19.40;29.40;;;;;;10498956;28;20233;-78
2023/07/22 01:19:55;;;;;;;2.10;1.90;;;19.30;29.60;;;;;;10501109;28;20252;-78
2023/07/22 01:25:01;;;;;;;3.50;2.10;;;19.20;30.10;;;;;;10501461;28;20318;-79
2023/07/22 01:30:06;;;;;;;8.73;2.43;;;19.20;30.40;;;;;;10499326;28;20307;-79
2023/07/22 01:35:10;;;;;;;2.57;2.10;;;19.10;29.90;;;;;;10500474;28;20277;-78
2023/07/22 01:40:15;;;;;;;2.40;1.60;;;19.10;30.00;;;;;;10499430;28;20275;-78
2023/07/22 01:45:18;;;;;;;2.07;1.90;;;19.10;30.30;;;;;;10499011;28;20788;-78
2023/07/22 01:50:22;;;;;;;2.40;1.80;;;19.10;30.00;;;;;;10499770;28;20251;-78
2023/07/22 01:55:26;;;;;;;2.00;1.77;;;19.10;29.80;;;;;;10498077;28;20273;-78
2023/07/22 02:00:30;;;;;;;6.93;1.87;;;19.10;30.10;;;;;;10500611;28;20248;-78
2023/07/22 02:05:33;;;;;;;2.20;2.00;;;18.90;29.90;;;;;;10500277;28;20266;-78
2023/07/22 02:10:37;;;;;;;1.93;1.80;;;18.90;30.00;;;;;;10500585;28;20224;-78
2023/07/22 02:15:42;;;;;;;1.60;1.50;;;18.90;30.40;;;;;;10500427;28;20992;-79
2023/07/22 02:20:46;;;;;;;1.73;1.63;;;18.90;30.50;;;;;;10500757;28;20308;-78
2023/07/22 02:25:51;;;;;;;2.97;2.03;;;18.90;30.20;;;;;;10498878;28;20311;-78
2023/07/22 02:30:55;;;;;;;2.73;1.80;;;18.90;30.80;;;;;;10500450;28;20236;-78
2023/07/22 02:35:58;;;;;;;2.00;1.90;;;18.90;30.10;;;;;;10498559;28;20788;-77
2023/07/22 02:41:07;;;;;;;3.20;2.93;;;18.90;30.00;;;;;;10499936;28;20252;-78
2023/07/22 02:46:11;;;;;;;3.43;3.13;;;18.90;31.00;;;;;;10496233;28;20247;-78
2023/07/22 02:51:14;;;;;;;2.70;2.50;;;18.70;30.00;;;;;;10499898;28;20225;-78
2023/07/22 02:56:19;;;;;;;2.23;2.03;;;18.50;30.10;;;;;;10497492;28;20687;-78
2023/07/22 03:01:23;;;;;;;3.23;2.17;;;18.20;30.60;;;;;;10499800;28;20256;-78
2023/07/22 03:06:27;;;;;;;2.57;2.37;;;18.00;30.60;;;;;;10503240;28;20714;-79
2023/07/22 03:11:32;;;;;;;3.60;2.13;;;17.70;30.90;;;;;;10507928;28;20224;-78
2023/07/22 03:16:35;;;;;;;3.03;1.90;;;17.60;31.60;;;;;;10505764;28;20227;-79
2023/07/22 03:21:38;;;;;;;2.33;2.13;;;17.60;31.30;;;;;;10503025;28;20235;-79
2023/07/22 03:26:43;;;;;;;2.30;2.10;;;17.60;31.60;;;;;;10507874;28;20254;-79
2023/07/22 03:31:47;;;;;;;1.90;1.80;;;17.60;32.20;;;;;;10505325;28;20236;-79
2023/07/22 03:36:53;;;;;;;2.67;2.17;;;17.70;31.90;;;;;;10504834;28;20220;-80
2023/07/22 03:41:57;;;;;;;3.97;2.20;;;17.70;31.90;;;;;;10504466;28;20228;-79
2023/07/22 03:47:01;;;;;;;2.23;2.03;;;17.70;31.70;;;;;;10502234;28;20324;-80
2023/07/22 03:52:06;;;;;;;4.93;2.33;;;17.60;31.50;;;;;;10463773;28;20237;-81
2023/07/22 03:57:11;;;;;;;1.97;1.60;;;17.50;31.90;;;;;;10465690;28;20747;-80
2023/07/22 04:02:14;;;;;;;4.63;2.40;;;17.40;32.00;;;;;;10465221;28;20965;-79
2023/07/22 04:07:19;;;;;;;3.67;2.00;;;17.30;31.90;;;;;;10465093;28;20320;-80
2023/07/22 04:12:24;;;;;;;3.60;2.13;;;17.30;32.80;;;;;;10465796;28;20255;-80
2023/07/22 04:17:27;;;;;;;2.00;1.90;;;17.30;32.60;;;;;;10463293;28;20709;-80
2023/07/22 04:22:30;;;;;;;2.83;1.90;;;17.30;33.10;;;;;;10464265;28;20225;-80
2023/07/22 04:27:35;;;;;;;4.50;2.60;;;17.30;32.50;;;;;;10462423;28;20319;-80
2023/07/22 04:32:38;;;;;;;4.43;2.40;;;17.40;33.50;;;;;;10463962;28;20228;-80
2023/07/22 04:37:41;;;;;;;3.33;2.33;;;17.50;33.10;;;;;;10462605;28;20229;-80
2023/07/22 04:42:46;;;;;;;2.27;2.00;;;17.50;33.00;;;;;;10463861;28;20259;-80
2023/07/22 04:47:50;;;;;;;4.13;2.50;;;17.60;33.40;;;;;;10461393;28;20240;-80
2023/07/22 04:52:54;;;;;;;2.97;2.10;;;17.70;32.90;;;;;;10462812;28;20635;-80
2023/07/22 04:57:59;;;;;;;2.37;2.17;;;17.80;33.00;;;;;;10461437;28;20240;-80
2023/07/22 05:03:06;;;;;;;3.93;2.50;;;17.80;33.60;;;;;;10495189;28;20303;-80
2023/07/22 05:08:09;;;;;;;4.00;2.40;;;17.80;33.20;;;;;;10488038;28;20311;-79
2023/07/22 05:13:16;;;;;;;2.37;2.10;;;17.90;33.60;;;;;;10500541;28;20224;-79
2023/07/22 05:18:19;;;;;;;2.83;2.30;;;18.00;34.70;;;;;;10478322;28;20284;-79
2023/07/22 05:23:22;;;;;;;3.87;2.27;;;18.00;33.60;;;;;;10500956;28;20252;-79
2023/07/22 05:28:27;;;;;;;2.37;2.10;;;18.10;34.00;;;;;;10492182;28;20260;-79
2023/07/22 05:33:30;;;;;;;2.33;2.13;;;18.30;34.70;;;;;;10495823;28;20246;-80
2023/07/22 05:38:33;;;;;;;3.67;2.17;;;18.30;34.40;;;;;;10500993;28;20232;-80
2023/07/22 05:43:38;;;;;;;2.70;2.20;;;18.40;34.40;;;;;;10501505;28;20660;-80
2023/07/22 05:48:41;;;;;;;2.23;2.10;;;18.50;35.20;;;;;;10500715;28;20648;-80
2023/07/22 05:53:44;;;;;;;2.40;2.20;;;18.60;34.80;;;;;;10500537;28;20255;-80
2023/07/22 05:58:49;;;;;;;3.87;2.30;;;18.70;35.40;;;;;;10498910;28;20307;-79
2023/07/22 06:03:53;;;;;;;2.80;2.60;;;18.80;35.50;;;;;;10499404;28;20285;-81
2023/07/22 06:08:56;;;;;;;3.23;2.57;;;18.90;35.50;;;;;;10500469;28;20694;-80
2023/07/22 06:14:01;;;;;;;2.90;2.70;;;19.00;35.60;;;;;;10500253;28;20309;-79
2023/07/22 06:19:05;;;;;;;4.40;2.60;;;19.20;35.80;;;;;;10454927;28;20307;-80
2023/07/22 06:24:08;;;;;;;2.60;2.40;;;19.30;35.90;;;;;;10483406;28;20240;-79
2023/07/22 06:29:13;;;;;;;2.60;2.23;;;19.50;35.30;;;;;;10498157;28;20243;-79
2023/07/22 06:34:18;;;;;;;2.40;2.20;;;19.70;35.40;;;;;;10466090;28;20259;-79
2023/07/22 06:39:21;;;;;;;2.30;2.00;;;19.90;35.00;;;;;;10500640;28;20942;-80
2023/07/22 06:44:26;;;;;;;2.27;2.07;;;20.10;34.70;;;;;;10507877;28;20282;-80
2023/07/22 06:49:29;;;;;;;3.80;2.10;;;20.30;34.60;;;;;;10509254;28;20235;-80
2023/07/22 06:54:32;;;;;;;3.90;2.40;;;20.50;34.30;;;;;;10496305;28;20249;-80
2023/07/22 06:59:37;;;;;;;2.50;2.30;;;20.80;34.80;;;;;;10464924;28;20788;-80
2023/07/22 07:04:41;;;;;;;2.30;2.10;;;21.00;34.10;;;;;;10467066;28;20252;-80
2023/07/22 07:09:46;;;;;;;3.37;2.03;;;21.10;33.80;;;;;;10466393;28;20304;-80
2023/07/22 07:14:52;;;;;;;2.60;2.40;;;21.30;33.70;;;;;;10505531;28;20254;-80
2023/07/22 07:19:56;;;;;;;4.27;2.43;;;21.50;32.80;;;;;;10509256;28;20240;-80
2023/07/22 07:25:00;;;;;;;2.30;2.10;;;21.60;33.60;;;;;;10504786;28;20243;-80
2023/07/22 07:30:08;;;;;;;3.63;2.00;;;21.80;33.50;;;;;;10506408;28;20224;-80
2023/07/22 07:35:12;;;;;;;2.13;1.90;;;21.90;33.00;;;;;;10523563;28;20276;-80
2023/07/22 07:40:42;;;;;;;2.40;2.20;;;22.10;33.00;;;;;;10506243;28;20244;-79
2023/07/22 07:45:46;;;;;;;2.20;2.10;;;22.20;32.60;;;;;;10504308;28;20311;-79
2023/07/22 07:50:51;;;;;;;3.40;2.10;;;22.40;32.20;;;;;;10501391;28;20252;-78
2023/07/22 07:55:54;;;;;;;2.10;1.90;;;22.50;32.20;;;;;;10501177;28;20731;-78
2023/07/22 08:00:58;;;;;;;2.47;2.27;;;22.70;31.90;;;;;;10498339;28;20228;-79
2023/07/22 08:06:03;;;;;;;1.77;1.67;;;22.90;31.90;;;;;;10499999;28;20762;-79
2023/07/22 08:11:08;;;;;;;2.00;1.90;;;23.10;31.30;;;;;;10500166;28;20663;-79
2023/07/22 08:16:16;;;;;;;2.40;1.70;;;23.30;31.10;;;;;;10500078;28;20319;-78
2023/07/22 08:21:20;;;;;;;3.43;1.90;;;23.50;30.90;;;;;;10499279;28;20248;-79
2023/07/22 08:26:24;;;;;;;3.20;1.80;;;23.70;30.50;;;;;;10499655;28;20254;-80
2023/07/22 08:31:29;;;;;;;2.00;1.80;;;23.90;30.30;;;;;;10482238;28;20224;-79
2023/07/22 08:36:35;;;;;;;1.73;1.63;;;24.00;29.40;;;;;;10487384;28;20290;-79
2023/07/22 08:41:40;;;;;;;1.77;1.50;;;24.20;29.50;;;;;;10481607;28;20231;-80
2023/07/22 08:46:46;;;;;;;1.97;1.87;;;24.30;29.70;;;;;;10475727;28;20327;-81
2023/07/22 08:51:50;;;;;;;2.23;2.07;;;24.50;28.40;;;;;;10469485;28;20220;-80
2023/07/22 08:56:55;;;;;;;2.17;1.70;;;24.60;28.40;;;;;;10477127;28;20283;-82
2023/07/22 09:02:00;;;;;;;1.93;1.73;;;24.70;28.80;;;;;;10468914;28;20236;-82
2023/07/22 09:07:05;;;;;;;2.20;2.00;;;24.90;28.00;;;;;;10479286;28;21111;-82
2023/07/22 09:12:13;;;;;;;2.10;1.90;;;25.00;27.90;;;;;;10476859;28;20313;-82
2023/07/22 09:17:19;;;;;;;2.00;1.80;;;25.30;27.60;;;;;;10475246;28;20315;-75
2023/07/22 09:22:27;;;;;;;2.00;1.80;;;25.40;27.30;;;;;;10474447;28;20236;-75
2023/07/22 09:27:36;;;;;;;1.97;1.87;;;25.70;26.90;;;;;;10473628;28;20229;-76
2023/07/22 09:32:44;;;;;;;1.83;1.73;;;26.00;27.20;;;;;;10480476;28;20224;-76
2023/07/22 09:37:48;;;;;;;1.87;1.77;;;26.10;26.60;;;;;;10480359;28;20711;-76
2023/07/22 09:42:53;;;;;;;3.23;2.00;;;26.30;26.50;;;;;;10467859;28;20224;-77
2023/07/22 09:47:59;;;;;;;1.70;1.60;;;26.30;26.30;;;;;;10473725;28;20233;-76
2023/07/22 09:53:03;;;;;;;2.27;1.90;;;26.40;26.10;;;;;;10473150;28;20232;-76
2023/07/22 09:58:09;;;;;;;1.97;1.77;;;26.40;26.50;;;;;;10477709;28;20236;-76
2023/07/22 10:03:16;;;;;;;2.00;1.90;;;26.50;25.90;;;;;;10469162;28;20297;-76
2023/07/22 10:08:22;;;;;;;1.90;1.80;;;26.50;25.20;;;;;;10474660;28;20224;-76
2023/07/22 10:13:26;;;;;;;2.40;2.10;;;26.50;25.40;;;;;;10473848;28;20260;-76
2023/07/22 10:18:32;;;;;;;2.37;1.73;;;26.40;25.90;;;;;;10483411;28;20298;-76
2023/07/22 10:23:39;;;;;;;1.80;1.70;;;26.50;24.50;;;;;;10489465;28;21188;-76
2023/07/22 10:28:44;;;;;;;1.93;1.83;;;26.50;24.90;;;;;;10473371;28;20248;-79
2023/07/22 10:33:50;;;;;;;2.07;1.93;;;26.40;24.80;;;;;;10474350;28;20704;-80
2023/07/22 10:38:57;;;;;;;1.77;1.67;;;26.40;24.30;;;;;;10481603;28;20231;-76
2023/07/22 10:44:02;;;;;;;2.23;1.67;;;26.40;24.70;;;;;;10484255;28;20216;-77
2023/07/22 10:49:12;;;;;;;2.10;1.90;;;26.60;24.90;;;;;;10475533;28;20239;-77
2023/07/22 10:54:32;;;;;;;1.70;1.60;;;26.70;23.50;;;;;;10484085;28;20240;-77
2023/07/22 10:59:35;;;;;;;4.03;1.80;;;26.90;24.60;;;;;;10490347;28;20234;-77
2023/07/22 11:04:40;;;;;;;1.60;1.50;;;27.10;24.30;;;;;;10480479;28;20712;-77
2023/07/22 11:09:58;;;;;;;1.60;1.50;;;27.20;24.00;;;;;;10485588;28;20247;-77
2023/07/22 11:15:05;;;;;;;1.70;1.60;;;27.40;23.40;;;;;;10481045;28;20259;-77
2023/07/22 11:20:11;;;;;;;2.40;1.80;;;27.40;22.60;;;;;;10482527;28;20233;-80
2023/07/22 11:25:19;;;;;;;2.47;1.50;;;27.50;22.60;;;;;;10487415;28;20229;-80
2023/07/22 11:30:24;;;;;;;1.67;1.50;;;27.50;21.90;;;;;;10481577;28;20291;-80
2023/07/22 11:35:30;;;;;;;1.70;1.60;;;27.60;22.50;;;;;;10493356;28;20235;-82
2023/07/22 11:40:36;;;;;;;1.80;1.70;;;27.70;22.10;;;;;;10492952;28;20438;-80
2023/07/22 11:45:41;;;;;;;2.00;1.80;;;27.90;21.50;;;;;;10498591;28;20359;-78
2023/07/22 11:50:45;;;;;;;1.80;1.70;;;28.00;21.60;;;;;;10487219;28;20219;-78
2023/07/22 11:55:49;;;;;;;2.10;1.90;;;28.00;20.70;;;;;;10493964;28;20603;-81
2023/07/22 12:01:03;;;;;;;1.87;1.70;;;28.00;21.00;;;;;;10497882;28;20312;-79
2023/07/22 12:06:10;;;;;;;2.43;1.73;;;28.00;20.20;;;;;;10494484;28;20220;-79
2023/07/22 12:11:20;;;;;;;1.80;1.70;;;28.00;20.50;;;;;;10498666;28;20307;-79
2023/07/22 12:16:24;;;;;;;1.77;1.67;;;28.00;20.10;;;;;;10480379;28;20232;-79
2023/07/22 12:21:31;;;;;;;1.70;1.60;;;28.00;20.10;;;;;;10489917;28;20232;-79
2023/07/22 12:26:34;;;;;;;1.60;1.50;;;28.10;19.90;;;;;;10473598;28;20314;-79
2023/07/22 12:31:37;;;;;;;2.00;1.90;;;28.10;20.10;;;;;;10472948;28;20234;-79
2023/07/22 12:36:42;;;;;;;2.93;1.80;;;28.10;20.10;;;;;;10482255;28;20273;-80
2023/07/22 12:41:46;;;;;;;1.87;1.73;;;28.20;19.80;;;;;;10478904;28;20267;-81
2023/07/22 12:46:55;;;;;;;2.90;1.90;;;28.20;20.20;;;;;;10483982;28;20221;-82
2023/07/22 12:52:04;;;;;;;1.80;1.70;;;28.30;19.20;;;;;;10479637;28;20271;-82
2023/07/22 12:57:07;;;;;;;1.80;1.70;;;28.30;19.50;;;;;;10453399;28;20298;-81
2023/07/22 13:02:11;;;;;;;1.90;1.80;;;28.40;19.50;;;;;;10439941;28;20236;-82
2023/07/22 13:07:15;;;;;;;1.90;1.80;;;28.50;19.20;;;;;;10440099;28;20228;-83
2023/07/22 13:12:21;;;;;;;2.13;1.70;;;28.50;19.30;;;;;;10435396;28;20257;-82
2023/07/22 13:17:25;;;;;;;1.70;1.60;;;28.60;18.60;;;;;;10444239;28;20221;-82
2023/07/22 13:22:30;;;;;;;2.13;1.97;;;28.60;18.90;;;;;;10441335;28;20287;-81
2023/07/22 13:27:33;;;;;;;1.90;1.80;;;28.70;18.30;;;;;;10441264;28;20701;-82
2023/07/22 13:32:37;;;;;;;1.77;1.67;;;28.70;18.50;;;;;;10441665;28;20236;-81
2023/07/22 13:37:44;;;;;;;4.13;2.07;;;28.80;18.20;;;;;;10437899;28;20264;-82
2023/07/22 13:42:47;;;;;;;1.90;1.80;;;28.80;17.80;;;;;;10441912;28;20605;-81
2023/07/22 13:47:51;;;;;;;1.97;1.70;;;28.70;18.40;;;;;;10441119;28;20232;-83
2023/07/22 13:52:56;;;;;;;1.90;1.80;;;28.70;18.20;;;;;;10438787;28;20229;-82
2023/07/22 13:58:00;;;;;;;2.17;2.00;;;28.80;18.00;;;;;;10438440;28;20259;-82
2023/07/22 14:03:04;;;;;;;2.30;1.77;;;28.80;18.30;;;;;;10484220;28;20263;-82
2023/07/22 14:08:10;;;;;;;2.50;2.30;;;28.90;17.90;;;;;;10487166;28;20231;-81
2023/07/22 14:13:14;;;;;;;2.27;2.07;;;28.80;17.50;;;;;;10482073;28;20227;-80
2023/07/22 14:18:18;;;;;;;2.33;1.80;;;28.80;17.80;;;;;;10480798;28;20250;-82
2023/07/22 14:23:24;;;;;;;1.90;1.80;;;28.80;17.80;;;;;;10470428;28;20228;-77
2023/07/22 14:28:27;;;;;;;3.00;1.90;;;28.80;16.80;;;;;;10471372;28;20229;-76
2023/07/22 14:33:31;;;;;;;1.90;1.80;;;28.80;17.70;;;;;;10472844;28;20228;-77
2023/07/22 14:38:36;;;;;;;2.07;1.97;;;28.80;17.70;;;;;;10467104;28;20670;-77
2023/07/22 14:43:39;;;;;;;2.57;2.10;;;28.90;17.40;;;;;;10464868;28;20256;-77
2023/07/22 14:48:44;;;;;;;2.00;1.90;;;29.00;17.80;;;;;;10465518;28;20221;-78
2023/07/22 14:53:49;;;;;;;3.30;2.00;;;29.10;17.50;;;;;;10462176;28;20209;-76
2023/07/22 14:58:52;;;;;;;1.90;1.80;;;29.10;16.90;;;;;;10462901;28;20268;-77
2023/07/22 15:03:55;;;;;;;2.03;1.90;;;29.10;17.40;;;;;;10462175;28;20233;-78
2023/07/22 15:09:02;;;;;;;2.30;2.10;;;29.20;17.40;;;;;;10485320;28;20217;-78
2023/07/22 15:14:13;;;;;;;1.90;1.80;;;29.10;16.50;;;;;;10475901;28;20270;-77
2023/07/22 15:19:20;;;;;;;1.70;1.60;;;29.10;16.70;;;;;;10468844;28;20277;-77
2023/07/22 15:24:25;;;;;;;1.80;1.70;;;29.00;17.00;;;;;;10471095;28;20303;-77
2023/07/22 15:29:29;;;;;;;1.90;1.80;;;28.90;16.70;;;;;;10466731;28;20224;-77
2023/07/22 15:34:33;;;;;;;1.80;1.70;;;28.90;17.10;;;;;;10470819;28;20229;-77
2023/07/22 15:39:37;;;;;;;3.13;2.93;;;28.90;16.50;;;;;;10475631;28;20331;-77
2023/07/22 15:44:40;;;;;;;2.53;2.33;;;28.90;16.50;;;;;;10473786;28;20931;-78
2023/07/22 15:49:44;;;;;;;2.10;1.87;;;28.90;16.80;;;;;;10474455;28;20884;-78
2023/07/22 15:54:48;;;;;;;2.30;2.10;;;28.90;16.80;;;;;;10467213;28;20239;-78
2023/07/22 15:59:51;;;;;;;1.90;1.77;;;28.90;16.30;;;;;;10469361;28;20273;-77
2023/07/22 16:04:55;;;;;;;2.60;2.40;;;28.90;16.90;;;;;;10480095;28;20253;-79
2023/07/22 16:09:59;;;;;;;2.17;2.00;;;28.80;17.10;;;;;;10466466;28;20221;-78
2023/07/22 16:15:05;;;;;;;2.43;2.10;;;28.80;16.70;;;;;;10482427;28;20222;-78
2023/07/22 16:20:10;;;;;;;1.73;1.63;;;28.90;16.80;;;;;;10473443;28;20309;-77
2023/07/22 16:25:15;;;;;;;2.73;1.80;;;29.10;16.90;;;;;;10475077;28;20913;-80
2023/07/22 16:30:19;;;;;;;2.67;1.90;;;29.20;16.40;;;;;;10477015;28;20228;-81
2023/07/22 16:35:22;;;;;;;1.77;1.67;;;29.10;16.50;;;;;;10480455;28;20240;-79
2023/07/22 16:40:29;;;;;;;2.20;2.00;;;28.90;16.50;;;;;;10476547;28;20490;-79
2023/07/22 16:45:33;;;;;;;1.83;1.73;;;28.90;16.20;;;;;;10474898;28;20798;-79
2023/07/22 16:50:36;;;;;;;2.07;1.90;;;28.80;16.50;;;;;;10469161;28;20307;-80
2023/07/22 16:55:41;;;;;;;2.47;2.10;;;28.80;16.80;;;;;;10471852;28;20672;-79
2023/07/22 17:00:47;;;;;;;1.90;1.80;;;28.90;16.50;;;;;;10479844;28;20299;-79
2023/07/22 17:05:50;;;;;;;1.90;1.80;;;28.80;16.60;;;;;;10469658;28;20319;-79
2023/07/22 17:10:55;;;;;;;1.83;1.70;;;28.70;16.60;;;;;;10471768;28;20278;-79
2023/07/22 17:16:00;;;;;;;2.00;1.83;;;28.60;16.60;;;;;;10472106;28;20256;-80
2023/07/22 17:21:03;;;;;;;2.03;1.93;;;28.50;16.40;;;;;;10474920;28;20228;-79
2023/07/22 17:26:08;;;;;;;2.07;1.87;;;28.50;16.70;;;;;;10469573;28;20233;-79
2023/07/22 17:31:11;;;;;;;2.27;1.90;;;28.40;16.70;;;;;;10466468;28;20938;-79
2023/07/22 17:36:14;;;;;;;2.63;1.90;;;28.30;16.90;;;;;;10474319;28;20232;-79
2023/07/22 17:41:19;;;;;;;2.00;1.90;;;28.30;17.10;;;;;;10477862;28;20314;-79
2023/07/22 17:46:22;;;;;;;2.33;2.00;;;28.30;16.80;;;;;;10479478;28;20288;-79
2023/07/22 17:51:25;;;;;;;2.63;2.07;;;28.20;17.00;;;;;;10482161;28;20643;-78
2023/07/22 17:56:30;;;;;;;2.20;2.10;;;28.20;17.20;;;;;;10472314;28;20251;-79
2023/07/22 18:01:33;;;;;;;2.27;2.00;;;28.20;17.20;;;;;;10467799;28;20230;-77
2023/07/22 18:06:37;;;;;;;2.13;1.93;;;28.10;17.40;;;;;;10476622;28;20236;-77
2023/07/22 18:11:45;;;;;;;2.10;1.90;;;28.20;17.40;;;;;;10488206;28;20228;-77
2023/07/22 18:16:48;;;;;;;1.97;1.87;;;28.10;17.40;;;;;;10481153;28;20225;-77
2023/07/22 18:21:51;;;;;;;2.97;2.07;;;28.10;17.40;;;;;;10490225;28;20703;-77
2023/07/22 18:26:56;;;;;;;4.53;2.50;;;28.10;17.50;;;;;;10476297;28;20250;-77
2023/07/22 18:31:59;;;;;;;2.60;2.40;;;27.90;17.40;;;;;;10481513;28;21111;-77
2023/07/22 18:37:02;;;;;;;2.60;2.17;;;27.70;17.50;;;;;;10484503;28;20957;-77
2023/07/22 18:42:07;;;;;;;4.87;2.40;;;27.50;17.80;;;;;;10491936;28;20242;-77
2023/07/22 18:47:10;;;;;;;3.00;2.20;;;27.40;18.00;;;;;;10481274;28;20224;-77
2023/07/22 18:52:14;;;;;;;2.30;2.10;;;27.20;18.00;;;;;;10489719;28;20237;-77
2023/07/22 18:57:18;;;;;;;2.40;2.20;;;27.10;18.20;;;;;;10478008;28;20221;-77
2023/07/22 19:02:21;;;;;;;3.67;2.20;;;27.10;18.40;;;;;;10475377;28;20236;-77
2023/07/22 19:07:25;;;;;;;3.37;2.53;;;27.00;18.50;;;;;;10476004;28;20732;-76
2023/07/22 19:12:30;;;;;;;4.43;3.47;;;27.00;18.90;;;;;;10479765;28;20755;-78
2023/07/22 19:17:33;;;;;;;4.53;4.00;;;27.00;19.10;;;;;;10488801;28;20671;-78
2023/07/22 19:22:36;;;;;;;3.50;3.20;;;27.10;19.20;;;;;;10482575;28;20220;-78
2023/07/22 19:27:41;;;;;;;3.10;2.80;;;27.00;19.20;;;;;;10465319;28;20256;-78
2023/07/22 19:32:44;;;;;;;3.00;2.80;;;26.90;19.50;;;;;;10486729;28;20230;-78
2023/07/22 19:37:47;;;;;;;3.30;3.00;;;26.80;19.40;;;;;;10489336;28;20659;-77
2023/07/22 19:42:52;;;;;;;2.80;2.60;;;26.70;19.40;;;;;;10473466;28;20216;-77
2023/07/22 19:47:55;;;;;;;3.20;2.43;;;26.50;19.40;;;;;;10474970;28;20249;-78
2023/07/22 19:52:59;;;;;;;2.90;2.60;;;26.30;19.70;;;;;;10476401;28;20252;-78
2023/07/22 19:58:03;;;;;;;3.43;2.50;;;26.20;20.00;;;;;;10433785;28;20229;-77
2023/07/22 20:03:06;;;;;;;2.33;2.13;;;26.00;20.50;;;;;;10437808;28;20228;-78
2023/07/22 20:08:10;;;;;;;2.37;2.17;;;26.00;20.40;;;;;;10433386;28;20268;-77
2023/07/22 20:13:15;;;;;;;4.07;3.50;;;26.00;20.60;;;;;;10440741;28;20311;-78
2023/07/22 20:18:18;;;;;;;4.73;3.00;;;26.00;21.10;;;;;;10430920;28;20245;-77
2023/07/22 20:23:22;;;;;;;13.60;12.20;;;26.00;20.90;;;;;;10445963;28;20252;-77
2023/07/22 20:28:26;;;;;;;6.60;6.00;;;25.90;21.00;;;;;;10433781;28;20369;-78
2023/07/22 20:33:32;;;;;;;4.10;3.80;;;25.80;21.30;;;;;;10431069;28;20618;-77
2023/07/22 20:38:36;;;;;;;3.27;2.97;;;25.70;21.10;;;;;;10469934;28;20643;-77
2023/07/22 20:43:40;;;;;;;4.00;3.60;;;25.60;21.40;;;;;;10471732;28;20314;-78
2023/07/22 20:48:43;;;;;;;6.97;5.27;;;25.50;21.60;;;;;;10471912;28;20315;-77
2023/07/22 20:53:46;;;;;;;7.30;5.70;;;25.40;21.60;;;;;;10477063;28;20323;-77
2023/07/22 20:58:51;;;;;;;4.60;3.90;;;25.30;21.60;;;;;;10479373;28;20735;-78
2023/07/22 21:03:54;;;;;;;4.07;3.17;;;25.20;21.80;;;;;;10469792;28;20672;-77
2023/07/22 21:08:58;;;;;;;4.50;3.60;;;25.10;21.60;;;;;;10472969;28;20709;-78
2023/07/22 21:14:03;;;;;;;3.87;3.47;;;24.90;21.90;;;;;;10474802;28;20224;-78
2023/07/22 21:19:06;;;;;;;5.00;3.47;;;24.90;22.20;;;;;;10434453;28;20284;-77
2023/07/22 21:24:09;;;;;;;3.77;3.47;;;24.80;22.10;;;;;;10435246;28;20974;-78
2023/07/22 21:29:15;;;;;;;4.07;3.30;;;24.60;22.20;;;;;;10432813;28;20241;-77
2023/07/22 21:34:18;;;;;;;5.37;3.30;;;24.50;22.80;;;;;;10432002;28;20225;-77
2023/07/22 21:39:22;;;;;;;5.63;3.10;;;24.30;22.70;;;;;;10427578;28;20328;-76
2023/07/22 21:44:26;;;;;;;6.33;4.10;;;24.10;22.90;;;;;;10430516;28;20552;-77
2023/07/22 21:49:30;;;;;;;3.60;3.13;;;23.90;23.50;;;;;;10433149;28;20249;-77
2023/07/22 21:54:33;;;;;;;4.83;4.10;;;23.70;23.20;;;;;;10436599;28;20336;-77
2023/07/22 21:59:39;;;;;;;6.10;3.93;;;23.60;23.50;;;;;;10441796;28;20656;-78
2023/07/22 22:04:42;;;;;;;5.80;3.90;;;23.50;23.90;;;;;;10434839;28;20315;-77
2023/07/22 22:09:45;;;;;;;4.97;4.07;;;23.50;23.80;;;;;;10434565;28;20230;-77
2023/07/22 22:14:55;;;;;;;4.63;3.47;;;23.40;23.90;;;;;;10441366;28;20697;-77
2023/07/22 22:19:58;;;;;;;3.73;3.43;;;23.40;24.60;;;;;;10440720;28;20625;-78
2023/07/22 22:25:02;;;;;;;3.73;3.30;;;23.30;23.90;;;;;;10441530;28;20627;-78
2023/07/22 22:30:08;;;;;;;4.70;3.67;;;23.30;24.00;;;;;;10471838;28;20224;-78
2023/07/22 22:35:11;;;;;;;5.80;4.90;;;23.20;24.50;;;;;;10482436;28;20256;-78
2023/07/22 22:40:15;;;;;;;3.83;3.37;;;23.20;24.30;;;;;;10477217;28;20733;-78
2023/07/22 22:45:19;;;;;;;5.40;3.73;;;23.20;24.40;;;;;;10487133;28;20226;-78
2023/07/22 22:50:23;;;;;;;4.30;3.50;;;23.10;24.80;;;;;;10474190;28;20239;-77
2023/07/22 22:55:26;;;;;;;4.17;3.77;;;23.00;24.40;;;;;;10476721;28;20709;-78
2023/07/22 23:00:31;;;;;;;4.77;3.93;;;22.80;24.40;;;;;;10474486;28;20723;-78
2023/07/22 23:05:34;;;;;;;5.90;3.53;;;22.50;25.00;;;;;;10472299;28;20724;-78
2023/07/22 23:10:37;;;;;;;3.87;3.57;;;22.30;24.70;;;;;;10466220;28;20256;-78
2023/07/22 23:15:42;;;;;;;5.73;3.47;;;22.10;25.10;;;;;;10476770;28;20273;-78
2023/07/22 23:20:45;;;;;;;4.17;3.60;;;22.00;25.60;;;;;;10468825;28;20307;-79
2023/07/22 23:25:48;;;;;;;4.40;3.70;;;21.90;25.30;;;;;;10481803;28;20335;-78
2023/07/22 23:30:57;;;;;;;5.80;3.70;;;21.90;25.40;;;;;;10484310;28;20221;-78
2023/07/22 23:36:02;;;;;;;5.67;3.70;;;21.80;26.50;;;;;;10477826;28;20259;-78
2023/07/22 23:41:07;;;;;;;3.37;3.07;;;21.80;25.70;;;;;;10441163;28;20225;-78
2023/07/22 23:46:12;;;;;;;4.27;3.87;;;21.80;25.60;;;;;;10437439;28;20225;-78
2023/07/22 23:51:15;;;;;;;4.77;3.50;;;21.70;26.20;;;;;;10444228;28;20225;-78
2023/07/22 23:56:18;;;;;;;3.83;3.50;;;21.70;25.80;;;;;;10463174;28;20239;-78
